createdAt,value
2018-03-11T00:26:18.079Z,0
2018-03-11T00:39:02.032Z,0
2018-03-11T00:46:39.044Z,0
2018-03-11T00:59:52.663Z,0
2018-03-11T01:15:05.272Z,0
2018-03-11T01:20:40.151Z,0
2018-03-11T01:37:24.258Z,0
2018-03-11T05:14:07.521Z,3
2018-03-11T05:19:37.933Z,7
2018-03-11T05:22:38.048Z,10
2018-03-11T05:25:08.200Z,13
2018-03-11T05:27:08.341Z,17
2018-03-11T05:28:38.418Z,20
2018-03-11T05:29:38.496Z,23
2018-03-11T05:30:38.591Z,27
2018-03-11T05:31:38.587Z,30
2018-03-11T05:32:08.597Z,33
2018-03-11T05:32:38.634Z,37
2018-03-11T05:33:08.658Z,40
2018-03-11T05:33:38.742Z,43
2018-03-11T05:34:08.708Z,47
2018-03-11T05:34:38.758Z,50
2018-03-11T05:35:08.776Z,57
2018-03-11T05:35:38.826Z,60
2018-03-11T05:36:08.888Z,67
2018-03-11T05:36:38.883Z,70
2018-03-11T05:37:08.918Z,73
2018-03-11T05:37:38.940Z,77
2018-03-11T05:38:08.987Z,80
2018-03-11T05:38:39.007Z,83
2018-03-11T05:39:09.083Z,87
2018-03-11T05:39:39.066Z,90
2018-03-11T05:40:09.154Z,93
2018-03-11T05:40:39.129Z,100
2018-03-11T05:41:09.184Z,103
2018-03-11T05:41:39.300Z,107
2018-03-11T05:42:09.202Z,113
2018-03-11T05:42:39.277Z,117
2018-03-11T05:43:09.294Z,120
2018-03-11T05:43:39.354Z,123
2018-03-11T05:44:09.342Z,127
2018-03-11T05:44:39.408Z,130
2018-03-11T05:45:09.402Z,137
2018-03-11T05:45:39.522Z,143
2018-03-11T05:46:09.478Z,150
2018-03-11T05:46:39.568Z,157
2018-03-11T05:47:09.539Z,163
2018-03-11T05:47:39.586Z,170
2018-03-11T05:48:09.606Z,177
2018-03-11T05:48:39.661Z,187
2018-03-11T05:49:09.633Z,193
2018-03-11T05:49:39.706Z,200
2018-03-11T05:50:09.759Z,207
2018-03-11T05:50:39.761Z,213
2018-03-11T05:51:09.755Z,223
2018-03-11T05:51:39.802Z,233
2018-03-11T05:52:09.820Z,240
2018-03-11T05:52:39.861Z,250
2018-03-11T05:53:09.887Z,260
2018-03-11T05:53:39.933Z,270
2018-03-11T05:54:09.950Z,283
2018-03-11T05:54:39.992Z,297
2018-03-11T05:55:10.008Z,307
2018-03-11T05:55:40.052Z,320
2018-03-11T05:56:10.068Z,330
2018-03-11T05:56:40.155Z,340
2018-03-11T05:57:10.170Z,353
2018-03-11T05:57:40.178Z,370
2018-03-11T05:58:10.219Z,387
2018-03-11T05:58:40.305Z,403
2018-03-11T05:59:10.330Z,423
2018-03-11T05:59:40.318Z,433
2018-03-11T06:00:10.321Z,450
2018-03-11T06:00:40.371Z,467
2018-03-11T06:01:10.379Z,483
2018-03-11T06:01:40.421Z,497
2018-03-11T06:02:10.442Z,513
2018-03-11T06:02:40.488Z,530
2018-03-11T06:03:10.580Z,550
2018-03-11T06:03:40.541Z,570
2018-03-11T06:04:10.622Z,590
2018-03-11T06:04:40.627Z,613
2018-03-11T06:05:10.613Z,640
2018-03-11T06:05:40.663Z,660
2018-03-11T06:06:10.678Z,690
2018-03-11T06:06:40.767Z,717
2018-03-11T06:07:10.741Z,743
2018-03-11T06:07:40.782Z,770
2018-03-11T06:08:10.801Z,800
2018-03-11T06:08:40.844Z,830
2018-03-11T06:09:10.878Z,853
2018-03-11T06:09:40.922Z,883
2018-03-11T06:10:10.988Z,900
2018-03-11T06:10:41.005Z,903
2018-03-11T06:11:11.035Z,893
2018-03-11T06:11:41.088Z,877
2018-03-11T06:12:11.113Z,870
2018-03-11T06:12:41.142Z,867
2018-03-11T06:13:11.128Z,873
2018-03-11T06:13:41.210Z,880
2018-03-11T06:14:11.211Z,890
2018-03-11T06:14:41.305Z,910
2018-03-11T06:15:11.258Z,933
2018-03-11T06:15:41.307Z,957
2018-03-11T06:16:11.357Z,983
2018-03-11T06:16:41.354Z,1010
2018-03-11T06:17:11.442Z,1037
2018-03-11T06:17:41.561Z,1057
2018-03-11T06:18:11.426Z,1073
2018-03-11T06:18:41.571Z,1087
2018-03-11T06:19:11.495Z,1097
2018-03-11T06:19:41.574Z,1107
2018-03-11T06:20:11.651Z,1120
2018-03-11T06:20:41.587Z,1130
2018-03-11T06:21:11.620Z,1147
2018-03-11T06:21:41.647Z,1167
2018-03-11T06:22:11.690Z,1183
2018-03-11T06:22:41.708Z,1203
2018-03-11T06:23:11.744Z,1220
2018-03-11T06:23:41.778Z,1240
2018-03-11T06:24:11.788Z,1260
2018-03-11T06:24:41.829Z,1277
2018-03-11T06:25:11.851Z,1290
2018-03-11T06:25:41.959Z,1310
2018-03-11T06:26:11.918Z,1327
2018-03-11T06:26:41.949Z,1350
2018-03-11T06:27:11.974Z,1373
2018-03-11T06:27:42.027Z,1397
2018-03-11T06:28:12.031Z,1420
2018-03-11T06:28:42.113Z,1443
2018-03-11T06:29:12.105Z,1473
2018-03-11T06:29:42.203Z,1513
2018-03-11T06:30:12.187Z,1583
2018-03-11T06:30:42.247Z,1613
2018-03-11T06:31:12.234Z,1630
2018-03-11T06:31:42.321Z,1643
2018-03-11T06:32:12.329Z,1663
2018-03-11T06:32:42.346Z,1670
2018-03-11T06:33:12.410Z,1690
2018-03-11T06:33:42.399Z,1640
2018-03-11T06:34:12.433Z,1540
2018-03-11T06:34:42.491Z,1497
2018-03-11T06:35:42.510Z,1513
2018-03-11T06:36:12.548Z,1527
2018-03-11T06:36:42.576Z,1560
2018-03-11T06:37:12.752Z,1610
2018-03-11T06:37:42.636Z,1670
2018-03-11T06:38:12.686Z,1723
2018-03-11T06:38:42.691Z,1757
2018-03-11T06:39:12.729Z,1787
2018-03-11T06:39:42.745Z,1820
2018-03-11T06:40:12.780Z,1863
2018-03-11T06:40:42.810Z,1903
2018-03-11T06:41:12.843Z,1927
2018-03-11T06:41:42.882Z,1953
2018-03-11T06:42:12.907Z,1977
2018-03-11T06:42:42.935Z,2000
2018-03-11T06:43:12.949Z,2007
2018-03-11T06:44:13.112Z,2020
2018-03-11T06:44:43.065Z,2047
2018-03-11T06:45:13.101Z,2073
2018-03-11T06:45:43.161Z,2087
2018-03-11T06:46:13.199Z,2100
2018-03-11T06:46:43.221Z,2120
2018-03-11T06:47:13.265Z,2140
2018-03-11T06:47:43.349Z,2157
2018-03-11T06:48:13.319Z,2177
2018-03-11T06:48:43.323Z,2203
2018-03-11T06:49:13.390Z,2230
2018-03-11T06:49:43.384Z,2257
2018-03-11T06:50:13.425Z,2277
2018-03-11T06:50:43.432Z,2300
2018-03-11T06:51:13.497Z,2317
2018-03-11T06:51:43.560Z,2337
2018-03-11T06:52:13.552Z,2353
2018-03-11T06:52:43.598Z,2373
2018-03-11T06:53:13.615Z,2403
2018-03-11T06:53:43.642Z,2423
2018-03-11T06:54:13.668Z,2447
2018-03-11T06:54:43.680Z,2470
2018-03-11T06:55:13.746Z,2480
2018-03-11T06:55:43.747Z,2500
2018-03-11T06:56:13.790Z,2517
2018-03-11T06:56:43.879Z,2533
2018-03-11T06:57:13.838Z,2547
2018-03-11T06:57:43.854Z,2557
2018-03-11T06:58:14.216Z,2560
2018-03-11T06:58:43.955Z,2563
2018-03-11T06:59:14.023Z,2587
2018-03-11T06:59:44.028Z,2617
2018-03-11T07:00:14.036Z,2643
2018-03-11T07:00:44.102Z,2667
2018-03-11T07:01:14.126Z,2697
2018-03-11T07:01:44.113Z,2717
2018-03-11T07:02:14.191Z,2733
2018-03-11T07:02:44.207Z,2767
2018-03-11T07:03:14.218Z,2810
2018-03-11T07:03:44.287Z,2867
2018-03-11T07:04:14.285Z,2900
2018-03-11T07:04:44.315Z,2923
2018-03-11T07:05:14.358Z,2947
2018-03-11T07:05:44.385Z,2967
2018-03-11T07:06:14.394Z,2990
2018-03-11T07:06:44.439Z,3023
2018-03-11T07:07:14.450Z,3060
2018-03-11T07:07:44.519Z,3070
2018-03-11T07:08:44.585Z,3073
2018-03-11T07:09:14.589Z,3187
2018-03-11T07:09:44.619Z,3943
2018-03-11T07:10:14.612Z,5023
2018-03-11T07:10:44.692Z,5757
2018-03-11T07:11:14.681Z,6697
2018-03-11T07:11:44.741Z,7103
2018-03-11T07:12:14.736Z,7233
2018-03-11T07:12:44.813Z,7107
2018-03-11T07:13:14.800Z,6477
2018-03-11T07:13:44.853Z,6697
2018-03-11T07:14:14.879Z,6957
2018-03-11T07:14:44.911Z,7357
2018-03-11T07:15:14.942Z,6857
2018-03-11T07:15:44.967Z,5753
2018-03-11T07:16:15.042Z,4700
2018-03-11T07:16:45.047Z,3937
2018-03-11T07:17:15.151Z,4233
2018-03-11T07:17:45.091Z,5030
2018-03-11T07:18:15.182Z,6383
2018-03-11T07:18:45.158Z,7207
2018-03-11T07:19:15.236Z,7243
2018-03-11T07:19:45.223Z,7680
2018-03-11T07:20:15.254Z,7623
2018-03-11T07:20:45.336Z,7383
2018-03-11T07:21:15.338Z,7073
2018-03-11T07:21:45.354Z,7030
2018-03-11T07:22:15.450Z,6930
2018-03-11T07:22:45.407Z,6187
2018-03-11T07:23:15.488Z,5563
2018-03-11T07:23:45.483Z,5743
2018-03-11T07:24:15.482Z,6387
2018-03-11T07:24:45.612Z,6937
2018-03-11T07:25:15.562Z,7137
2018-03-11T07:25:45.649Z,6717
2018-03-11T07:26:15.651Z,6303
2018-03-11T07:26:45.666Z,5530
2018-03-11T07:27:15.706Z,4807
2018-03-11T07:27:45.707Z,4850
2018-03-11T07:28:15.714Z,6263
2018-03-11T07:28:45.772Z,7560
2018-03-11T07:29:15.779Z,7797
2018-03-11T07:29:45.834Z,7257
2018-03-11T07:30:15.889Z,5880
2018-03-11T07:30:45.902Z,5167
2018-03-11T07:31:15.914Z,5180
2018-03-11T07:31:45.972Z,5697
2018-03-11T07:32:15.965Z,6007
2018-03-11T07:32:46.013Z,6450
2018-03-11T07:33:16.027Z,7343
2018-03-11T07:33:46.078Z,7473
2018-03-11T07:34:16.081Z,7103
2018-03-11T07:34:46.134Z,6770
2018-03-11T07:35:16.173Z,6313
2018-03-11T07:35:46.207Z,5957
2018-03-11T07:36:16.264Z,6750
2018-03-11T07:36:46.256Z,7343
2018-03-11T07:37:16.373Z,8667
2018-03-11T07:37:46.423Z,9237
2018-03-11T07:38:16.364Z,9207
2018-03-11T07:38:46.422Z,8443
2018-03-11T07:39:16.413Z,7980
2018-03-11T07:39:46.470Z,7853
2018-03-11T07:40:16.508Z,7590
2018-03-11T07:40:46.589Z,6927
2018-03-11T07:41:16.582Z,6567
2018-03-11T07:41:46.609Z,6757
2018-03-11T07:42:16.596Z,7710
2018-03-11T07:42:46.681Z,9650
2018-03-11T07:43:16.647Z,11477
2018-03-11T07:43:46.731Z,12597
2018-03-11T07:44:16.710Z,13083
2018-03-11T07:44:46.814Z,13117
2018-03-11T07:45:16.765Z,13487
2018-03-11T07:45:46.823Z,13667
2018-03-11T07:46:16.865Z,14347
2018-03-11T07:46:46.933Z,14403
2018-03-11T07:47:16.929Z,14143
2018-03-11T07:47:46.975Z,14053
2018-03-11T07:48:16.960Z,13397
2018-03-11T07:48:47.042Z,13360
2018-03-11T07:49:17.075Z,13693
2018-03-11T07:49:47.096Z,14047
2018-03-11T07:50:17.142Z,14833
2018-03-11T07:50:47.126Z,15603
2018-03-11T07:51:17.155Z,15670
2018-03-11T07:51:47.221Z,15233
2018-03-11T07:52:17.236Z,14703
2018-03-11T07:52:47.282Z,13203
2018-03-11T07:53:17.303Z,11933
2018-03-11T07:53:47.410Z,11290
2018-03-11T07:54:17.418Z,11037
2018-03-11T07:54:47.424Z,11630
2018-03-11T07:55:17.432Z,11517
2018-03-11T07:55:47.455Z,12130
2018-03-11T07:56:17.484Z,13013
2018-03-11T07:56:47.636Z,13413
2018-03-11T07:57:17.544Z,13710
2018-03-11T07:57:47.641Z,14793
2018-03-11T07:58:17.606Z,14610
2018-03-11T07:58:47.713Z,15340
2018-03-11T07:59:17.689Z,15373
2018-03-11T07:59:47.671Z,15247
2018-03-11T08:00:17.697Z,14310
2018-03-11T08:00:47.734Z,14353
2018-03-11T08:01:17.786Z,14803
2018-03-11T08:01:47.853Z,15943
2018-03-11T08:02:17.812Z,17997
2018-03-11T08:02:47.859Z,18283
2018-03-11T08:03:17.870Z,19310
2018-03-11T08:03:47.919Z,18967
2018-03-11T08:04:17.953Z,18017
2018-03-11T08:04:47.984Z,17947
2018-03-11T08:05:18.039Z,18570
2018-03-11T08:05:48.042Z,18903
2018-03-11T08:06:18.085Z,19363
2018-03-11T08:06:48.116Z,19553
2018-03-11T08:07:18.135Z,19347
2018-03-11T08:07:48.210Z,19333
2018-03-11T08:08:18.181Z,19560
2018-03-11T08:08:48.290Z,19913
2018-03-11T08:09:18.301Z,20283
2018-03-11T08:09:48.336Z,20750
2018-03-11T08:10:18.360Z,20187
2018-03-11T08:10:48.426Z,20197
2018-03-11T08:11:18.394Z,20857
2018-03-11T08:11:48.450Z,21430
2018-03-11T08:12:18.491Z,21687
2018-03-11T08:12:48.471Z,21900
2018-03-11T08:13:18.505Z,21887
2018-03-11T08:13:48.602Z,22140
2018-03-11T08:14:18.637Z,21890
2018-03-11T08:14:48.603Z,22070
2018-03-11T08:15:18.683Z,22463
2018-03-11T08:15:48.677Z,22420
2018-03-11T08:16:18.721Z,22577
2018-03-11T08:16:48.750Z,22300
2018-03-11T08:17:18.745Z,22173
2018-03-11T08:17:48.798Z,22730
2018-03-11T08:18:18.817Z,22970
2018-03-11T08:18:48.858Z,23557
2018-03-11T08:19:18.864Z,23823
2018-03-11T08:19:48.922Z,23847
2018-03-11T08:20:18.952Z,23933
2018-03-11T08:20:48.968Z,23907
2018-03-11T08:21:18.988Z,24010
2018-03-11T08:21:49.038Z,23950
2018-03-11T08:22:19.079Z,24023
2018-03-11T08:22:49.123Z,23853
2018-03-11T08:23:19.125Z,23777
2018-03-11T08:23:49.165Z,23877
2018-03-11T08:24:19.247Z,23990
2018-03-11T08:24:49.221Z,24173
2018-03-11T08:25:19.290Z,24017
2018-03-11T08:25:49.333Z,24300
2018-03-11T08:26:19.368Z,24720
2018-03-11T08:26:49.406Z,24977
2018-03-11T08:27:19.408Z,25290
2018-03-11T08:27:49.426Z,25210
2018-03-11T08:28:19.459Z,25397
2018-03-11T08:28:49.498Z,25077
2018-03-11T08:29:19.507Z,24980
2018-03-11T08:29:49.574Z,24743
2018-03-11T08:30:19.591Z,25603
2018-03-11T08:30:49.706Z,25890
2018-03-11T08:31:19.639Z,25870
2018-03-11T08:31:49.646Z,26040
2018-03-11T08:32:19.711Z,26243
2018-03-11T08:32:49.709Z,25670
2018-03-11T08:33:19.763Z,24323
2018-03-11T08:33:49.769Z,23913
2018-03-11T08:34:19.885Z,24760
2018-03-11T08:34:49.834Z,25683
2018-03-11T08:35:19.883Z,26147
2018-03-11T08:35:49.892Z,26590
2018-03-11T08:36:19.949Z,27337
2018-03-11T08:36:49.953Z,27187
2018-03-11T08:37:20.040Z,27700
2018-03-11T08:37:50.014Z,27927
2018-03-11T08:38:20.082Z,28337
2018-03-11T08:38:50.128Z,27850
2018-03-11T08:39:20.168Z,27083
2018-03-11T08:39:50.144Z,27157
2018-03-11T08:40:20.217Z,27893
2018-03-11T08:40:50.342Z,27747
2018-03-11T08:41:20.341Z,28157
2018-03-11T08:41:50.298Z,27813
2018-03-11T08:42:20.391Z,27717
2018-03-11T08:42:50.345Z,26983
2018-03-11T08:43:20.408Z,28477
2018-03-11T08:43:50.394Z,26683
2018-03-11T08:44:20.413Z,27023
2018-03-11T08:44:50.471Z,26270
2018-03-11T08:45:20.495Z,25720
2018-03-11T08:45:50.515Z,26870
2018-03-11T08:46:20.544Z,26857
2018-03-11T08:46:50.571Z,27440
2018-03-11T08:47:20.601Z,27803
2018-03-11T08:47:50.635Z,27653
2018-03-11T08:48:20.709Z,27510
2018-03-11T08:48:50.709Z,26423
2018-03-11T08:49:20.752Z,26207
2018-03-11T08:49:50.769Z,26253
2018-03-11T08:50:20.798Z,25940
2018-03-11T08:50:50.819Z,26400
2018-03-11T08:51:20.842Z,26853
2018-03-11T08:51:50.887Z,26680
2018-03-11T08:52:20.936Z,27470
2018-03-11T08:52:50.968Z,26917
2018-03-11T08:53:21.002Z,26957
2018-03-11T08:53:51.115Z,27590
2018-03-11T08:54:21.069Z,28160
2018-03-11T08:54:51.110Z,28830
2018-03-11T08:55:51.129Z,29620
2018-03-11T08:56:21.173Z,29540
2018-03-11T08:56:51.239Z,30017
2018-03-11T08:57:21.260Z,30073
2018-03-11T08:57:51.251Z,28990
2018-03-11T08:58:21.281Z,29410
2018-03-11T08:58:51.366Z,29537
2018-03-11T08:59:21.412Z,29723
2018-03-11T08:59:51.457Z,30127
2018-03-11T09:00:21.422Z,30107
2018-03-11T09:00:51.457Z,30560
2018-03-11T09:01:21.513Z,30427
2018-03-11T09:01:51.521Z,30330
2018-03-11T09:02:21.539Z,30883
2018-03-11T09:02:51.571Z,30753
2018-03-11T09:03:21.626Z,30083
2018-03-11T09:03:51.800Z,28153
2018-03-11T09:04:21.652Z,26020
2018-03-11T09:04:51.686Z,22637
2018-03-11T09:05:21.732Z,24830
2018-03-11T09:05:51.766Z,28640
2018-03-11T09:06:21.779Z,30293
2018-03-11T09:06:51.807Z,31583
2018-03-11T09:07:21.837Z,29447
2018-03-11T09:07:51.868Z,30003
2018-03-11T09:08:21.901Z,28740
2018-03-11T09:08:51.932Z,28853
2018-03-11T09:09:21.960Z,28820
2018-03-11T09:09:51.994Z,26460
2018-03-11T09:10:22.057Z,29130
2018-03-11T09:10:52.056Z,30113
2018-03-11T09:11:22.074Z,29367
2018-03-11T09:11:52.127Z,27953
2018-03-11T09:12:22.131Z,27770
2018-03-11T09:12:52.263Z,28557
2018-03-11T09:13:22.220Z,27927
2018-03-11T09:13:52.249Z,27430
2018-03-11T09:14:22.338Z,28097
2018-03-11T09:14:52.351Z,29187
2018-03-11T09:15:22.319Z,29770
2018-03-11T09:15:52.424Z,29623
2018-03-11T09:16:22.434Z,30100
2018-03-11T09:16:52.464Z,30857
2018-03-11T09:17:22.497Z,32720
2018-03-11T09:17:52.564Z,32667
2018-03-11T09:18:22.508Z,32407
2018-03-11T09:18:52.584Z,32067
2018-03-11T09:19:22.591Z,32107
2018-03-11T09:19:52.659Z,32207
2018-03-11T09:20:22.684Z,32437
2018-03-11T09:20:52.713Z,32223
2018-03-11T09:21:22.718Z,32740
2018-03-11T09:21:52.803Z,32810
2018-03-11T09:22:22.763Z,32437
2018-03-11T09:22:52.837Z,32837
2018-03-11T09:23:22.840Z,32410
2018-03-11T09:23:52.934Z,31360
2018-03-11T09:24:22.876Z,30713
2018-03-11T09:24:52.928Z,30187
2018-03-11T09:25:22.937Z,29617
2018-03-11T09:25:53.063Z,31210
2018-03-11T09:26:22.998Z,30163
2018-03-11T09:26:53.072Z,30843
2018-03-11T09:27:23.066Z,29857
2018-03-11T09:27:53.149Z,27550
2018-03-11T09:28:23.121Z,30793
2018-03-11T09:28:53.213Z,30823
2018-03-11T09:29:23.183Z,31153
2018-03-11T09:29:53.264Z,30673
2018-03-11T09:30:23.306Z,29743
2018-03-11T09:30:53.297Z,29427
2018-03-11T09:31:23.319Z,29730
2018-03-11T09:31:53.399Z,30053
2018-03-11T09:32:23.431Z,29737
2018-03-11T09:32:53.461Z,26370
2018-03-11T09:33:23.505Z,29123
2018-03-11T09:33:53.506Z,28723
2018-03-11T09:34:23.530Z,28360
2018-03-11T09:34:53.611Z,28210
2018-03-11T09:35:23.597Z,27320
2018-03-11T09:35:53.612Z,29600
2018-03-11T09:36:23.679Z,28877
2018-03-11T09:36:53.832Z,30520
2018-03-11T09:37:53.743Z,30293
2018-03-11T09:38:23.734Z,30003
2018-03-11T09:38:53.783Z,29460
2018-03-11T09:39:23.814Z,29457
2018-03-11T09:39:53.860Z,29193
2018-03-11T09:40:23.865Z,29013
2018-03-11T09:40:53.914Z,29213
2018-03-11T09:41:23.926Z,28913
2018-03-11T09:41:53.964Z,30257
2018-03-11T09:42:24.001Z,31287
2018-03-11T09:42:54.033Z,31010
2018-03-11T09:43:24.069Z,31503
2018-03-11T09:43:54.087Z,31260
2018-03-11T09:44:24.116Z,31287
2018-03-11T09:44:54.200Z,31577
2018-03-11T09:45:24.189Z,30990
2018-03-11T09:45:54.255Z,31390
2018-03-11T09:46:24.552Z,31007
2018-03-11T09:46:54.322Z,31490
2018-03-11T09:47:24.306Z,33647
2018-03-11T09:47:54.401Z,35320
2018-03-11T09:48:24.389Z,36227
2018-03-11T09:48:54.417Z,36743
2018-03-11T09:49:24.474Z,35643
2018-03-11T09:49:54.487Z,35473
2018-03-11T09:50:24.511Z,37160
2018-03-11T09:50:54.548Z,36730
2018-03-11T09:51:24.590Z,35427
2018-03-11T09:51:54.589Z,34163
2018-03-11T09:52:24.608Z,34620
2018-03-11T09:52:54.641Z,33957
2018-03-11T09:53:24.773Z,35137
2018-03-11T09:53:54.707Z,34917
2018-03-11T09:54:24.976Z,30743
2018-03-11T09:54:54.767Z,26690
2018-03-11T09:55:24.789Z,32543
2018-03-11T09:55:54.854Z,33713
2018-03-11T09:56:24.846Z,33763
2018-03-11T09:56:54.905Z,35117
2018-03-11T09:57:24.917Z,34123
2018-03-11T09:57:54.991Z,32930
2018-03-11T09:58:24.978Z,33200
2018-03-11T09:58:55.012Z,34017
2018-03-11T09:59:25.048Z,33987
2018-03-11T09:59:55.078Z,34173
2018-03-11T10:00:25.091Z,32063
2018-03-11T10:00:55.209Z,32673
2018-03-11T10:01:25.172Z,33260
2018-03-11T10:01:55.209Z,32860
2018-03-11T10:02:25.259Z,31713
2018-03-11T10:02:55.265Z,31013
2018-03-11T10:03:25.330Z,30997
2018-03-11T10:03:55.378Z,31107
2018-03-11T10:04:25.348Z,30937
2018-03-11T10:04:55.426Z,30293
2018-03-11T10:05:25.481Z,29667
2018-03-11T10:05:55.512Z,28450
2018-03-11T10:06:25.495Z,26793
2018-03-11T10:06:55.508Z,25093
2018-03-11T10:07:25.557Z,25773
2018-03-11T10:07:55.577Z,28460
2018-03-11T10:08:25.666Z,28773
2018-03-11T10:08:55.716Z,29647
2018-03-11T10:09:25.695Z,29773
2018-03-11T10:09:55.757Z,28603
2018-03-11T10:10:25.734Z,23380
2018-03-11T10:10:55.761Z,22147
2018-03-11T10:11:25.820Z,22443
2018-03-11T10:11:55.812Z,21627
2018-03-11T10:12:25.888Z,22593
2018-03-11T10:12:55.885Z,23433
2018-03-11T10:13:25.996Z,25507
2018-03-11T10:13:55.967Z,29493
2018-03-11T10:14:26.009Z,31573
2018-03-11T10:14:56.010Z,31383
2018-03-11T10:15:26.056Z,32797
2018-03-11T10:15:56.091Z,31993
2018-03-11T10:16:26.109Z,24170
2018-03-11T10:16:56.177Z,28160
2018-03-11T10:17:26.295Z,30590
2018-03-11T10:17:56.194Z,27367
2018-03-11T10:18:26.243Z,33793
2018-03-11T10:18:56.301Z,36513
2018-03-11T10:19:26.322Z,36260
2018-03-11T10:19:56.340Z,36037
2018-03-11T10:20:26.354Z,35767
2018-03-11T10:20:56.418Z,36127
2018-03-11T10:21:26.423Z,36230
2018-03-11T10:21:56.458Z,36923
2018-03-11T10:22:26.508Z,34170
2018-03-11T10:22:56.551Z,33667
2018-03-11T10:23:26.530Z,33683
2018-03-11T10:23:56.626Z,32710
2018-03-11T10:24:26.608Z,33013
2018-03-11T10:24:56.669Z,33703
2018-03-11T10:25:26.662Z,35073
2018-03-11T10:25:56.731Z,35457
2018-03-11T10:26:26.737Z,38600
2018-03-11T10:26:57.013Z,40133
2018-03-11T10:27:26.761Z,40533
2018-03-11T10:27:56.822Z,39450
2018-03-11T10:28:26.829Z,34763
2018-03-11T10:28:56.878Z,25413
2018-03-11T10:29:26.898Z,20790
2018-03-11T10:29:56.940Z,24213
2018-03-11T10:30:26.994Z,23567
2018-03-11T10:30:57.013Z,17297
2018-03-11T10:31:27.014Z,19810
2018-03-11T10:31:57.079Z,23567
2018-03-11T10:32:27.114Z,21900
2018-03-11T10:32:57.116Z,26417
2018-03-11T10:33:27.198Z,25240
2018-03-11T10:33:57.227Z,25000
2018-03-11T10:34:27.194Z,31627
2018-03-11T10:34:57.302Z,32640
2018-03-11T10:35:27.339Z,34180
2018-03-11T10:35:57.307Z,34893
2018-03-11T10:36:27.372Z,35327
2018-03-11T10:36:57.440Z,35270
2018-03-11T10:37:27.496Z,36050
2018-03-11T10:37:57.507Z,34560
2018-03-11T10:38:27.450Z,33970
2018-03-11T10:38:57.524Z,30737
2018-03-11T10:39:27.514Z,31220
2018-03-11T10:39:57.598Z,29087
2018-03-11T10:40:27.619Z,27280
2018-03-11T10:40:57.641Z,22340
2018-03-11T10:41:27.665Z,23610
2018-03-11T10:41:57.782Z,21363
2018-03-11T10:42:27.718Z,18487
2018-03-11T10:42:57.771Z,18647
2018-03-11T10:43:27.769Z,18163
2018-03-11T10:43:57.801Z,17727
2018-03-11T10:44:27.821Z,13527
2018-03-11T10:44:57.864Z,11487
2018-03-11T10:45:27.876Z,11720
2018-03-11T10:45:57.932Z,12457
2018-03-11T10:46:27.936Z,10493
2018-03-11T10:46:57.997Z,9527
2018-03-11T10:47:28.011Z,9190
2018-03-11T10:47:58.054Z,8843
2018-03-11T10:48:28.073Z,8193
2018-03-11T10:48:58.149Z,7787
2018-03-11T10:49:28.139Z,7560
2018-03-11T10:49:58.203Z,7500
2018-03-11T10:50:28.180Z,7447
2018-03-11T10:50:58.294Z,7573
2018-03-11T10:51:28.306Z,7707
2018-03-11T10:51:58.333Z,7940
2018-03-11T10:52:28.332Z,8190
2018-03-11T10:52:58.379Z,8433
2018-03-11T10:53:28.407Z,8677
2018-03-11T10:53:58.457Z,8897
2018-03-11T10:54:28.528Z,9387
2018-03-11T10:54:58.510Z,9297
2018-03-11T10:55:28.519Z,9530
2018-03-11T10:55:58.571Z,9923
2018-03-11T10:56:28.603Z,10510
2018-03-11T10:56:58.681Z,12597
2018-03-11T10:57:28.630Z,12450
2018-03-11T10:57:58.697Z,13917
2018-03-11T10:58:28.759Z,14660
2018-03-11T10:58:58.763Z,22207
2018-03-11T10:59:28.760Z,14027
2018-03-11T10:59:58.822Z,13443
2018-03-11T11:00:28.831Z,13493
2018-03-11T11:00:58.882Z,13843
2018-03-11T11:01:28.860Z,13647
2018-03-11T11:01:58.937Z,14913
2018-03-11T11:02:28.927Z,24637
2018-03-11T11:02:59.007Z,22880
2018-03-11T11:03:28.980Z,18263
2018-03-11T11:03:59.070Z,22707
2018-03-11T11:04:29.051Z,24103
2018-03-11T11:04:59.159Z,41457
2018-03-11T11:05:29.106Z,18977
2018-03-11T11:05:59.188Z,15667
2018-03-11T11:06:29.210Z,13703
2018-03-11T11:06:59.259Z,11610
2018-03-11T11:07:29.267Z,10740
2018-03-11T11:07:59.324Z,10337
2018-03-11T11:08:29.388Z,10227
2018-03-11T11:08:59.368Z,10027
2018-03-11T11:09:29.408Z,9177
2018-03-11T11:09:59.484Z,9113
2018-03-11T11:10:29.432Z,8510
2018-03-11T11:10:59.526Z,8457
2018-03-11T11:11:29.485Z,12760
2018-03-11T11:11:59.538Z,8293
2018-03-11T11:12:29.584Z,7487
2018-03-11T11:12:59.614Z,7013
2018-03-11T11:13:29.611Z,6817
2018-03-11T11:13:59.706Z,6743
2018-03-11T11:14:29.723Z,6807
2018-03-11T11:14:59.774Z,6913
2018-03-11T11:15:29.734Z,7083
2018-03-11T11:15:59.791Z,7290
2018-03-11T11:16:29.790Z,7467
2018-03-11T11:16:59.837Z,7620
2018-03-11T11:17:29.859Z,7757
2018-03-11T11:17:59.897Z,7960
2018-03-11T11:18:29.910Z,8213
2018-03-11T11:19:00.015Z,8483
2018-03-11T11:19:29.981Z,8833
2018-03-11T11:20:00.034Z,9993
2018-03-11T11:20:30.034Z,10810
2018-03-11T11:21:00.103Z,11170
2018-03-11T11:21:30.108Z,11553
2018-03-11T11:22:00.193Z,12570
2018-03-11T11:22:30.233Z,13777
2018-03-11T11:23:00.662Z,13880
2018-03-11T11:23:30.311Z,16280
2018-03-11T11:24:00.696Z,19307
2018-03-11T11:24:30.284Z,25990
2018-03-11T11:25:00.719Z,17520
2018-03-11T11:25:30.373Z,26687
2018-03-11T11:26:00.774Z,23687
2018-03-11T11:26:30.448Z,16900
2018-03-11T11:27:00.842Z,15673
2018-03-11T11:27:30.528Z,14647
2018-03-11T11:28:00.718Z,16107
2018-03-11T11:28:30.571Z,14333
2018-03-11T11:29:00.765Z,14310
2018-03-11T11:29:30.590Z,14240
2018-03-11T11:30:00.830Z,14530
2018-03-11T11:30:30.704Z,17587
2018-03-11T11:31:01.400Z,15130
2018-03-11T11:31:30.742Z,15330
2018-03-11T11:32:01.256Z,18930
2018-03-11T11:32:30.853Z,20830
2018-03-11T11:33:00.819Z,17053
2018-03-11T11:33:30.872Z,17507
2018-03-11T11:34:01.095Z,18457
2018-03-11T11:34:30.896Z,17767
2018-03-11T11:35:00.947Z,19873
2018-03-11T11:35:30.958Z,39627
2018-03-11T11:36:01.056Z,41157
2018-03-11T11:36:31.020Z,38080
2018-03-11T11:37:01.067Z,43440
2018-03-11T11:37:31.159Z,39593
2018-03-11T11:38:01.123Z,16387
2018-03-11T11:38:31.142Z,14973
2018-03-11T11:39:01.194Z,13610
2018-03-11T11:39:31.270Z,12413
2018-03-11T11:40:01.249Z,11663
2018-03-11T11:40:31.318Z,11230
2018-03-11T11:41:01.313Z,11130
2018-03-11T11:41:31.395Z,11627
2018-03-11T11:42:01.380Z,14333
2018-03-11T11:42:31.439Z,12140
2018-03-11T11:43:01.455Z,12100
2018-03-11T11:43:31.535Z,12560
2018-03-11T11:44:01.542Z,12643
2018-03-11T11:44:31.556Z,12010
2018-03-11T11:45:01.581Z,11230
2018-03-11T11:45:31.630Z,10440
2018-03-11T11:46:01.659Z,9683
2018-03-11T11:46:31.707Z,9050
2018-03-11T11:47:01.733Z,8573
2018-03-11T11:47:31.771Z,8163
2018-03-11T11:48:01.803Z,7873
2018-03-11T11:48:31.798Z,7723
2018-03-11T11:49:01.815Z,7790
2018-03-11T11:49:31.892Z,7917
2018-03-11T11:50:01.883Z,8077
2018-03-11T11:50:31.948Z,8233
2018-03-11T11:51:01.935Z,8253
2018-03-11T11:51:31.999Z,8353
2018-03-11T11:52:02.033Z,8700
2018-03-11T11:52:32.083Z,9597
2018-03-11T11:53:02.049Z,10973
2018-03-11T11:53:32.117Z,27040
2018-03-11T11:54:02.120Z,14320
2018-03-11T11:54:32.172Z,12033
2018-03-11T11:55:02.173Z,12363
2018-03-11T11:55:32.272Z,12460
2018-03-11T11:56:02.281Z,12503
2018-03-11T11:56:32.291Z,11883
2018-03-11T11:57:02.353Z,10360
2018-03-11T11:57:32.376Z,9600
2018-03-11T11:58:02.368Z,9147
2018-03-11T11:58:32.444Z,8903
2018-03-11T11:59:02.475Z,8387
2018-03-11T11:59:32.505Z,8070
2018-03-11T12:00:02.521Z,7760
2018-03-11T12:00:32.559Z,7450
2018-03-11T12:01:02.581Z,7177